DE-0004 weather

Flugplatz Gransee
Gransee, Brandenburg, Germany

Public forecast

Using degrees Celsius for public forecast. Weather courtesy of forecast.io.

Closest aviation weather report (METAR) to Flugplatz Gransee

Closest report is Berlin-Tegel Airport, 27.0 nm (50.0 km) S. Retrieved 2020/07/10 09:20 UTC (26 minutes ago):

EDDT 100920Z 15004KT 110V190 9999 FEW014 21/17 Q1006 BECMG 22010KT

Closest aviation forecast (TAF) to Flugplatz Gransee

Closest forecast is Berlin-Tegel Airport, 27.0 nm (50.0 km) S. Retrieved 2020/07/10 06:27 UTC (3 hours ago):

TAF EDDT 100500Z 1006/1106 17005KT 9999 FEW030 PROB30 TEMPO 1006/1008 4000 TSRA BKN020CB BECMG 1009/1011 25013KT BECMG 1012/1015 28015G30KT PROB30 TEMPO 1018/1022 BKN012 BECMG 1018/1021 28008KT